Tuesday, August 21, 2018, 9:52 AM EDT
Back to Local

KCAR, Caribou Municipal Airport

Location: Caribou, ME, United States Lat: 46.867
Local Time: 9:52 AM EDT (13:52 GMT) Lon: -68.017
Time Zone: US/Eastern Elev: 626 ft

Show me the last for .
Show Decoded

2018-08-21 08:54 METAR KCAR 211254Z AUTO 15006KT 10SM CLR 17/14 A3014 RMK AO2 SLP210 T01720139 =
2018-08-21 07:54 METAR KCAR 211154Z AUTO 00000KT 10SM CLR 14/12 A3016 RMK AO2 SLP217 T01440122
                 10144 20106 53003 =
2018-08-21 06:54 METAR KCAR 211054Z AUTO 00000KT 8SM FEW001 12/11 A3016 RMK AO2 SLP216 T01170106
                 =
2018-08-21 06:40 METAR KCAR 211040Z AUTO 00000KT 5SM BR SCT001 12/10 A3016 RMK AO2 T01170100 =
2018-08-21 06:29 METAR KCAR 211029Z AUTO 10003KT 6SM BR BKN002 11/10 A3015 =
2018-08-21 06:20 METAR KCAR 211020Z AUTO 09003KT 7SM SCT002 11/10 A3015 RMK AO2 T01110100 =
2018-08-21 05:54 METAR KCAR 210954Z AUTO 00000KT 6SM BR BKN002 11/09 A3015 RMK AO2 SLP213
                 T01060094 =
2018-08-21 05:51 METAR KCAR 210951Z AUTO 00000KT 6SM BR BKN002 11/09 A3015 RMK AO2 =
2018-08-21 05:43 METAR KCAR 210943Z AUTO 09003KT 6SM BR SCT002 11/09 A3015 RMK AO2 T01110094 =
2018-08-21 04:54 METAR KCAR 210854Z AUTO 10003KT 9SM CLR 12/11 A3015 RMK AO2 SLP213 T01170106
                 56003 =
2018-08-21 03:54 METAR KCAR 210754Z AUTO 00000KT 7SM CLR 11/10 A3015 RMK AO2 SLP213 T01110100 =
2018-08-21 02:54 METAR KCAR 210654Z AUTO 00000KT 10SM CLR 13/11 A3015 RMK AO2 SLP211 T01280111 =
2018-08-21 00:54 METAR KCAR 210454Z AUTO 00000KT 10SM CLR 14/12 A3017 RMK AO2 SLP220 T01440117
                 402390100 TSNO =
2018-08-20 23:54 METAR KCAR 210354Z AUTO 21003KT 10SM CLR 15/12 A3017 RMK AO2 SLP220 T01500117 =
2018-08-20 22:54 METAR KCAR 210254Z AUTO 18003KT 10SM CLR 16/11 A3017 RMK AO2 SLP220 T01560111
                 50001 =
2018-08-20 21:54 METAR KCAR 210154Z AUTO 00000KT 10SM CLR 16/12 A3017 RMK AO2 SLP221 T01610117 =
2018-08-20 20:54 METAR KCAR 210054Z AUTO 16004KT 10SM CLR 18/12 A3017 RMK AO2 SLP221 T01780122 =
2018-08-20 19:54 METAR KCAR 202354Z AUTO 16003KT 10SM CLR 19/12 A3017 RMK AO2 SLP219 T01940122
                 10239 20194 53003 =
2018-08-20 18:54 METAR KCAR 202254Z AUTO 16006KT 10SM CLR 21/12 A3016 RMK AO2 SLP217 T02110117 =
2018-08-20 17:54 METAR KCAR 202154Z AUTO 14006KT 10SM CLR 23/11 A3016 RMK AO2 SLP216 T02280106 =
2018-08-20 16:54 METAR KCAR 202054Z AUTO 16005KT 10SM CLR 23/07 A3016 RMK AO2 SLP216 T02280072
                 58011 =
2018-08-20 15:54 METAR KCAR 201954Z AUTO 15006KT 10SM CLR 24/09 A3017 RMK AO2 SLP220 T02390089 =
2018-08-20 14:54 METAR KCAR 201854Z AUTO 14008KT 10SM CLR 23/07 A3018 RMK AO2 SLP224 T02330072 =
2018-08-20 13:54 METAR KCAR 201754Z AUTO VRB05KT 10SM CLR 23/11 A3019 RMK AO2 SLP226 T02330111
                 10239 20128 56015 =
2018-08-20 12:54 METAR KCAR 201654Z AUTO 16005KT 10SM FEW039 22/12 A3020 RMK AO2 SLP231 T02220117
                 =
2018-08-20 11:54 METAR KCAR 201554Z AUTO VRB03KT 10SM CLR 22/12 A3022 RMK AO2 SLP235 T02170117 =
2018-08-20 10:54 METAR KCAR 201454Z AUTO 15005KT 10SM CLR 20/13 A3024 RMK AO2 SLP242 T02000133
                 58005 =
2018-08-20 09:54 METAR KCAR 201354Z AUTO VRB03KT 10SM CLR 18/13 A3024 RMK AO2 SLP243 T01780133 =

Support USWX by starting your Amazon purchase here.